sensor_id;sensor_type;location;lat;lon;timestamp;pressure;altitude;pressure_sealevel;temperature;humidity
10464;BME280;5279;42.048;24.638;2023-08-07T00:00:54;96737.66;;;21.84;59.74
10464;BME280;5279;42.048;24.638;2023-08-07T00:03:21;96729.94;;;21.75;60.36
10464;BME280;5279;42.048;24.638;2023-08-07T00:05:48;96731.44;;;21.83;59.45
10464;BME280;5279;42.048;24.638;2023-08-07T00:08:18;96739.53;;;21.83;59.58
10464;BME280;5279;42.048;24.638;2023-08-07T00:10:45;96726.06;;;21.71;59.73
10464;BME280;5279;42.048;24.638;2023-08-07T00:13:13;96723.00;;;21.56;60.64
10464;BME280;5279;42.048;24.638;2023-08-07T00:15:40;96734.97;;;21.49;61.43
10464;BME280;5279;42.048;24.638;2023-08-07T00:18:07;96734.00;;;21.43;61.41
10464;BME280;5279;42.048;24.638;2023-08-07T00:20:34;96731.09;;;21.33;61.79
10464;BME280;5279;42.048;24.638;2023-08-07T00:23:01;96723.13;;;21.15;63.23
10464;BME280;5279;42.048;24.638;2023-08-07T00:25:29;96716.97;;;21.08;63.83
10464;BME280;5279;42.048;24.638;2023-08-07T00:27:56;96730.91;;;21.05;64.50
10464;BME280;5279;42.048;24.638;2023-08-07T00:30:23;96727.63;;;21.03;65.28
10464;BME280;5279;42.048;24.638;2023-08-07T00:32:50;96728.09;;;21.00;65.59
10464;BME280;5279;42.048;24.638;2023-08-07T00:35:17;96735.97;;;21.13;65.29
10464;BME280;5279;42.048;24.638;2023-08-07T00:37:44;96735.84;;;21.08;65.50
10464;BME280;5279;42.048;24.638;2023-08-07T00:40:11;96737.94;;;21.06;65.76
10464;BME280;5279;42.048;24.638;2023-08-07T00:42:39;96743.84;;;21.14;65.42
10464;BME280;5279;42.048;24.638;2023-08-07T00:45:07;96729.88;;;21.06;65.64
10464;BME280;5279;42.048;24.638;2023-08-07T00:47:34;96735.06;;;21.19;65.40
10464;BME280;5279;42.048;24.638;2023-08-07T00:50:04;96732.13;;;21.20;65.51
10464;BME280;5279;42.048;24.638;2023-08-07T00:52:32;96737.88;;;21.24;65.40
10464;BME280;5279;42.048;24.638;2023-08-07T00:54:59;96739.75;;;21.23;65.55
10464;BME280;5279;42.048;24.638;2023-08-07T00:57:26;96751.84;;;21.33;65.47
10464;BME280;5279;42.048;24.638;2023-08-07T00:59:55;96732.88;;;21.28;65.51
10464;BME280;5279;42.048;24.638;2023-08-07T01:02:22;96754.28;;;21.34;65.65
10464;BME280;5279;42.048;24.638;2023-08-07T01:04:50;96751.72;;;21.39;65.41
10464;BME280;5279;42.048;24.638;2023-08-07T01:07:17;96761.31;;;21.35;65.79
10464;BME280;5279;42.048;24.638;2023-08-07T01:09:44;96757.34;;;21.26;66.08
10464;BME280;5279;42.048;24.638;2023-08-07T01:12:15;96769.75;;;21.27;66.28
10464;BME280;5279;42.048;24.638;2023-08-07T01:14:51;96758.97;;;21.27;66.31
10464;BME280;5279;42.048;24.638;2023-08-07T01:17:22;96767.16;;;21.09;67.08
10464;BME280;5279;42.048;24.638;2023-08-07T01:19:50;96776.25;;;21.08;67.61
10464;BME280;5279;42.048;24.638;2023-08-07T01:22:19;96779.91;;;21.13;67.44
10464;BME280;5279;42.048;24.638;2023-08-07T01:24:47;96783.69;;;21.12;67.62
10464;BME280;5279;42.048;24.638;2023-08-07T01:27:32;96786.75;;;20.98;68.31
10464;BME280;5279;42.048;24.638;2023-08-07T01:30:09;96784.41;;;21.01;68.63
10464;BME280;5279;42.048;24.638;2023-08-07T01:32:43;96784.66;;;21.00;68.66
10464;BME280;5279;42.048;24.638;2023-08-07T01:35:15;96785.69;;;20.99;68.57
10464;BME280;5279;42.048;24.638;2023-08-07T01:37:45;96794.69;;;20.93;69.05
10464;BME280;5279;42.048;24.638;2023-08-07T01:40:13;96807.22;;;20.87;69.44
10464;BME280;5279;42.048;24.638;2023-08-07T01:42:41;96801.47;;;20.84;69.47
10464;BME280;5279;42.048;24.638;2023-08-07T01:45:09;96806.84;;;20.84;69.76
10464;BME280;5279;42.048;24.638;2023-08-07T01:47:36;96811.78;;;20.87;70.09
10464;BME280;5279;42.048;24.638;2023-08-07T01:50:03;96816.78;;;20.83;70.30
10464;BME280;5279;42.048;24.638;2023-08-07T01:52:30;96817.25;;;20.80;70.33
10464;BME280;5279;42.048;24.638;2023-08-07T01:54:59;96821.69;;;20.75;70.76
10464;BME280;5279;42.048;24.638;2023-08-07T01:57:26;96816.16;;;20.69;71.44
10464;BME280;5279;42.048;24.638;2023-08-07T01:59:53;96815.34;;;20.69;71.80
10464;BME280;5279;42.048;24.638;2023-08-07T02:02:20;96816.91;;;20.58;72.41
10464;BME280;5279;42.048;24.638;2023-08-07T02:04:47;96820.56;;;20.46;73.13
10464;BME280;5279;42.048;24.638;2023-08-07T02:07:14;96821.34;;;20.35;73.78
10464;BME280;5279;42.048;24.638;2023-08-07T02:09:41;96817.50;;;20.24;74.64
10464;BME280;5279;42.048;24.638;2023-08-07T02:12:09;96828.72;;;20.21;75.23
10464;BME280;5279;42.048;24.638;2023-08-07T02:14:36;96834.56;;;20.18;76.12
10464;BME280;5279;42.048;24.638;2023-08-07T02:17:03;96836.63;;;20.16;76.64
10464;BME280;5279;42.048;24.638;2023-08-07T02:19:30;96830.97;;;20.06;76.85
10464;BME280;5279;42.048;24.638;2023-08-07T02:21:57;96834.94;;;19.79;79.15
10464;BME280;5279;42.048;24.638;2023-08-07T02:24:24;96832.25;;;19.79;79.11
10464;BME280;5279;42.048;24.638;2023-08-07T02:26:51;96828.34;;;19.75;79.21
10464;BME280;5279;42.048;24.638;2023-08-07T02:29:20;96825.97;;;19.67;79.75
10464;BME280;5279;42.048;24.638;2023-08-07T02:31:47;96826.84;;;19.60;80.42
10464;BME280;5279;42.048;24.638;2023-08-07T02:34:14;96832.91;;;19.49;80.50
10464;BME280;5279;42.048;24.638;2023-08-07T02:36:40;96841.41;;;19.46;81.37
10464;BME280;5279;42.048;24.638;2023-08-07T02:39:08;96835.16;;;19.52;80.97
10464;BME280;5279;42.048;24.638;2023-08-07T02:41:34;96838.91;;;19.51;81.34
10464;BME280;5279;42.048;24.638;2023-08-07T02:44:01;96843.50;;;19.44;82.40
10464;BME280;5279;42.048;24.638;2023-08-07T02:46:30;96843.94;;;19.41;82.59
10464;BME280;5279;42.048;24.638;2023-08-07T02:48:57;96848.06;;;19.37;83.18
10464;BME280;5279;42.048;24.638;2023-08-07T02:51:24;96850.59;;;19.32;83.37
10464;BME280;5279;42.048;24.638;2023-08-07T02:53:51;96844.81;;;19.29;83.85
10464;BME280;5279;42.048;24.638;2023-08-07T02:56:18;96845.66;;;19.29;83.82
10464;BME280;5279;42.048;24.638;2023-08-07T02:58:45;96847.34;;;19.24;84.90
10464;BME280;5279;42.048;24.638;2023-08-07T03:01:12;96849.75;;;19.32;85.06
10464;BME280;5279;42.048;24.638;2023-08-07T03:03:41;96849.81;;;19.25;85.84
10464;BME280;5279;42.048;24.638;2023-08-07T03:06:08;96858.09;;;19.24;85.15
10464;BME280;5279;42.048;24.638;2023-08-07T03:08:35;96857.25;;;19.23;84.92
10464;BME280;5279;42.048;24.638;2023-08-07T03:11:02;96861.81;;;19.23;85.06
10464;BME280;5279;42.048;24.638;2023-08-07T03:13:29;96855.16;;;19.25;85.01
10464;BME280;5279;42.048;24.638;2023-08-07T03:15:59;96862.97;;;19.33;84.22
10464;BME280;5279;42.048;24.638;2023-08-07T03:18:26;96852.22;;;19.33;83.81
10464;BME280;5279;42.048;24.638;2023-08-07T03:20:55;96864.59;;;19.41;83.74
10464;BME280;5279;42.048;24.638;2023-08-07T03:23:22;96867.44;;;19.46;83.71
10464;BME280;5279;42.048;24.638;2023-08-07T03:25:49;96869.97;;;19.41;83.42
10464;BME280;5279;42.048;24.638;2023-08-07T03:28:16;96872.03;;;19.45;82.61
10464;BME280;5279;42.048;24.638;2023-08-07T03:30:43;96875.75;;;19.44;82.67
10464;BME280;5279;42.048;24.638;2023-08-07T03:33:11;96896.03;;;19.40;83.20
10464;BME280;5279;42.048;24.638;2023-08-07T03:35:37;96884.84;;;19.43;82.62
10464;BME280;5279;42.048;24.638;2023-08-07T03:38:06;96896.41;;;19.44;82.81
10464;BME280;5279;42.048;24.638;2023-08-07T03:40:33;96889.97;;;19.51;81.85
10464;BME280;5279;42.048;24.638;2023-08-07T03:43:00;96890.59;;;19.47;82.72
10464;BME280;5279;42.048;24.638;2023-08-07T03:45:27;96888.31;;;19.50;82.55
10464;BME280;5279;42.048;24.638;2023-08-07T03:47:54;96893.44;;;19.52;81.98
10464;BME280;5279;42.048;24.638;2023-08-07T03:50:21;96897.84;;;19.46;83.13
10464;BME280;5279;42.048;24.638;2023-08-07T03:52:48;96894.28;;;19.52;81.94
10464;BME280;5279;42.048;24.638;2023-08-07T03:55:16;96895.94;;;19.53;82.05
10464;BME280;5279;42.048;24.638;2023-08-07T03:57:43;96900.88;;;19.56;82.26
10464;BME280;5279;42.048;24.638;2023-08-07T04:00:11;96896.72;;;19.60;82.02
10464;BME280;5279;42.048;24.638;2023-08-07T04:02:38;96905.81;;;19.59;81.82
10464;BME280;5279;42.048;24.638;2023-08-07T04:05:06;96904.56;;;19.62;82.00
10464;BME280;5279;42.048;24.638;2023-08-07T04:07:33;96898.25;;;19.75;81.09
10464;BME280;5279;42.048;24.638;2023-08-07T04:10:00;96899.84;;;19.82;80.13
10464;BME280;5279;42.048;24.638;2023-08-07T04:12:28;96904.03;;;19.78;80.31
10464;BME280;5279;42.048;24.638;2023-08-07T04:14:55;96908.56;;;19.78;81.48
10464;BME280;5279;42.048;24.638;2023-08-07T04:17:22;96888.38;;;19.69;80.87
10464;BME280;5279;42.048;24.638;2023-08-07T04:19:49;96924.59;;;19.91;80.20
10464;BME280;5279;42.048;24.638;2023-08-07T04:22:16;96919.97;;;19.98;79.44
10464;BME280;5279;42.048;24.638;2023-08-07T04:24:42;96905.66;;;20.04;79.56
10464;BME280;5279;42.048;24.638;2023-08-07T04:27:09;96914.94;;;20.08;77.86
10464;BME280;5279;42.048;24.638;2023-08-07T04:29:39;96915.00;;;20.26;77.89
10464;BME280;5279;42.048;24.638;2023-08-07T04:32:07;96927.69;;;20.37;76.94
10464;BME280;5279;42.048;24.638;2023-08-07T04:34:34;96920.84;;;20.41;75.86
10464;BME280;5279;42.048;24.638;2023-08-07T04:37:01;96927.44;;;20.45;75.64
10464;BME280;5279;42.048;24.638;2023-08-07T04:39:28;96925.34;;;20.47;74.25
10464;BME280;5279;42.048;24.638;2023-08-07T04:41:56;96916.88;;;20.62;73.08
10464;BME280;5279;42.048;24.638;2023-08-07T04:44:23;96923.41;;;20.73;73.78
10464;BME280;5279;42.048;24.638;2023-08-07T04:46:51;96928.63;;;20.86;72.38
10464;BME280;5279;42.048;24.638;2023-08-07T04:49:18;96926.91;;;20.91;71.69
10464;BME280;5279;42.048;24.638;2023-08-07T04:51:45;96918.44;;;21.06;71.59
10464;BME280;5279;42.048;24.638;2023-08-07T04:54:13;96926.22;;;21.14;70.55
10464;BME280;5279;42.048;24.638;2023-08-07T04:56:40;96925.81;;;21.29;69.99
10464;BME280;5279;42.048;24.638;2023-08-07T04:59:09;96922.56;;;21.38;68.36
10464;BME280;5279;42.048;24.638;2023-08-07T05:01:36;96918.97;;;21.44;67.87
10464;BME280;5279;42.048;24.638;2023-08-07T05:04:05;96913.00;;;21.42;67.27
10464;BME280;5279;42.048;24.638;2023-08-07T05:06:32;96913.94;;;21.48;67.27
10464;BME280;5279;42.048;24.638;2023-08-07T05:08:59;96908.31;;;21.49;68.09
10464;BME280;5279;42.048;24.638;2023-08-07T05:11:26;96906.84;;;21.76;66.40
10464;BME280;5279;42.048;24.638;2023-08-07T05:13:53;96910.84;;;21.86;65.24
10464;BME280;5279;42.048;24.638;2023-08-07T05:16:20;96903.50;;;21.93;65.94
10464;BME280;5279;42.048;24.638;2023-08-07T05:18:47;96923.84;;;22.18;65.28
10464;BME280;5279;42.048;24.638;2023-08-07T05:21:15;96919.63;;;22.34;64.44
10464;BME280;5279;42.048;24.638;2023-08-07T05:23:42;96926.03;;;22.56;64.24
10464;BME280;5279;42.048;24.638;2023-08-07T05:26:09;96922.19;;;22.52;62.84
10464;BME280;5279;42.048;24.638;2023-08-07T05:28:36;96919.69;;;22.62;61.66
10464;BME280;5279;42.048;24.638;2023-08-07T05:31:03;96925.34;;;22.72;62.17
10464;BME280;5279;42.048;24.638;2023-08-07T05:33:30;96914.44;;;22.79;61.30
10464;BME280;5279;42.048;24.638;2023-08-07T05:35:57;96909.00;;;22.91;61.52
10464;BME280;5279;42.048;24.638;2023-08-07T05:38:25;96910.25;;;23.00;61.45
10464;BME280;5279;42.048;24.638;2023-08-07T05:40:52;96916.84;;;23.04;60.49
10464;BME280;5279;42.048;24.638;2023-08-07T05:43:19;96927.63;;;23.04;60.00
10464;BME280;5279;42.048;24.638;2023-08-07T05:45:46;96927.78;;;22.97;59.81
10464;BME280;5279;42.048;24.638;2023-08-07T05:48:14;96935.09;;;22.73;60.74
10464;BME280;5279;42.048;24.638;2023-08-07T05:50:41;96934.47;;;22.95;60.91
10464;BME280;5279;42.048;24.638;2023-08-07T05:53:08;96941.25;;;23.09;60.08
10464;BME280;5279;42.048;24.638;2023-08-07T05:55:39;96931.63;;;23.01;60.23
10464;BME280;5279;42.048;24.638;2023-08-07T05:58:06;96945.75;;;22.92;59.94
10464;BME280;5279;42.048;24.638;2023-08-07T06:00:33;96926.06;;;22.79;59.87
10464;BME280;5279;42.048;24.638;2023-08-07T06:03:00;96936.78;;;23.03;60.58
10464;BME280;5279;42.048;24.638;2023-08-07T06:05:27;96920.09;;;23.06;59.63
10464;BME280;5279;42.048;24.638;2023-08-07T06:07:54;96945.16;;;23.41;59.81
10464;BME280;5279;42.048;24.638;2023-08-07T06:10:21;96950.28;;;23.54;58.70
10464;BME280;5279;42.048;24.638;2023-08-07T06:12:49;96937.84;;;23.70;57.94
10464;BME280;5279;42.048;24.638;2023-08-07T06:15:16;96950.31;;;23.71;57.07
10464;BME280;5279;42.048;24.638;2023-08-07T06:17:43;96967.19;;;23.61;57.86
10464;BME280;5279;42.048;24.638;2023-08-07T06:20:10;96951.25;;;23.48;57.71
10464;BME280;5279;42.048;24.638;2023-08-07T06:22:39;96950.34;;;23.31;57.69
10464;BME280;5279;42.048;24.638;2023-08-07T06:25:07;96930.16;;;23.22;58.11
10464;BME280;5279;42.048;24.638;2023-08-07T06:27:34;96949.75;;;23.41;58.13
10464;BME280;5279;42.048;24.638;2023-08-07T06:30:03;96947.00;;;23.52;57.88
10464;BME280;5279;42.048;24.638;2023-08-07T06:32:31;96942.16;;;23.54;57.54
10464;BME280;5279;42.048;24.638;2023-08-07T06:34:58;96961.94;;;23.71;56.26
10464;BME280;5279;42.048;24.638;2023-08-07T06:37:25;96940.00;;;23.84;56.89
10464;BME280;5279;42.048;24.638;2023-08-07T06:39:51;96938.88;;;23.97;56.54
10464;BME280;5279;42.048;24.638;2023-08-07T06:42:18;96938.88;;;24.14;55.02
10464;BME280;5279;42.048;24.638;2023-08-07T06:44:46;96942.56;;;24.41;54.15
10464;BME280;5279;42.048;24.638;2023-08-07T06:47:14;96941.84;;;24.45;53.34
10464;BME280;5279;42.048;24.638;2023-08-07T06:49:41;96956.19;;;24.46;52.77
10464;BME280;5279;42.048;24.638;2023-08-07T06:52:08;96944.97;;;24.37;53.45
10464;BME280;5279;42.048;24.638;2023-08-07T06:54:35;96952.50;;;24.52;51.32
10464;BME280;5279;42.048;24.638;2023-08-07T06:57:02;96958.19;;;24.72;52.59
10464;BME280;5279;42.048;24.638;2023-08-07T06:59:29;96967.91;;;24.68;50.35
10464;BME280;5279;42.048;24.638;2023-08-07T07:01:55;96973.59;;;24.50;50.56
10464;BME280;5279;42.048;24.638;2023-08-07T07:04:24;96964.16;;;24.36;50.91
10464;BME280;5279;42.048;24.638;2023-08-07T07:06:50;96966.31;;;24.34;51.37
10464;BME280;5279;42.048;24.638;2023-08-07T07:09:17;96963.00;;;24.65;51.25
10464;BME280;5279;42.048;24.638;2023-08-07T07:11:44;96960.81;;;25.00;50.62
10464;BME280;5279;42.048;24.638;2023-08-07T07:14:11;96949.44;;;25.04;48.36
10464;BME280;5279;42.048;24.638;2023-08-07T07:16:38;96958.19;;;25.32;52.81
10464;BME280;5279;42.048;24.638;2023-08-07T07:19:07;96954.88;;;25.47;49.95
10464;BME280;5279;42.048;24.638;2023-08-07T07:21:36;96968.25;;;25.32;47.31
10464;BME280;5279;42.048;24.638;2023-08-07T07:24:03;96957.34;;;25.48;47.77
10464;BME280;5279;42.048;24.638;2023-08-07T07:26:31;96962.06;;;25.58;47.83
10464;BME280;5279;42.048;24.638;2023-08-07T07:28:58;96962.31;;;25.35;48.37
10464;BME280;5279;42.048;24.638;2023-08-07T07:31:25;96964.72;;;25.53;48.83
10464;BME280;5279;42.048;24.638;2023-08-07T07:33:52;96970.19;;;25.85;48.76
10464;BME280;5279;42.048;24.638;2023-08-07T07:36:19;96974.53;;;26.13;46.83
10464;BME280;5279;42.048;24.638;2023-08-07T07:38:48;96963.38;;;26.09;45.99
10464;BME280;5279;42.048;24.638;2023-08-07T07:41:15;96962.75;;;26.29;46.96
10464;BME280;5279;42.048;24.638;2023-08-07T07:43:43;96964.47;;;26.40;47.85
10464;BME280;5279;42.048;24.638;2023-08-07T07:46:09;96970.00;;;26.50;46.68
10464;BME280;5279;42.048;24.638;2023-08-07T07:48:36;96964.44;;;26.72;45.98
10464;BME280;5279;42.048;24.638;2023-08-07T07:51:03;96965.28;;;26.77;45.57
10464;BME280;5279;42.048;24.638;2023-08-07T07:53:31;96958.91;;;27.03;45.90
10464;BME280;5279;42.048;24.638;2023-08-07T07:55:59;96956.56;;;27.22;46.36
10464;BME280;5279;42.048;24.638;2023-08-07T07:58:26;96975.34;;;27.24;43.88
10464;BME280;5279;42.048;24.638;2023-08-07T08:00:53;96969.09;;;27.23;44.50
10464;BME280;5279;42.048;24.638;2023-08-07T08:03:20;96962.97;;;27.48;44.14
10464;BME280;5279;42.048;24.638;2023-08-07T08:05:50;96958.09;;;27.60;44.47
10464;BME280;5279;42.048;24.638;2023-08-07T08:08:17;96967.91;;;27.66;43.65
10464;BME280;5279;42.048;24.638;2023-08-07T08:10:44;96969.84;;;27.91;44.44
10464;BME280;5279;42.048;24.638;2023-08-07T08:13:13;96971.78;;;27.90;41.05
10464;BME280;5279;42.048;24.638;2023-08-07T08:15:40;96964.16;;;27.87;41.83
10464;BME280;5279;42.048;24.638;2023-08-07T08:18:07;96972.31;;;27.87;45.19
10464;BME280;5279;42.048;24.638;2023-08-07T08:20:34;96959.78;;;27.91;43.52
10464;BME280;5279;42.048;24.638;2023-08-07T08:23:01;96953.25;;;27.92;42.28
10464;BME280;5279;42.048;24.638;2023-08-07T08:25:28;96963.56;;;27.80;41.99
10464;BME280;5279;42.048;24.638;2023-08-07T08:27:55;96968.75;;;27.92;43.25
10464;BME280;5279;42.048;24.638;2023-08-07T08:30:23;96959.03;;;28.11;41.58
10464;BME280;5279;42.048;24.638;2023-08-07T08:32:50;96951.13;;;28.19;41.37
10464;BME280;5279;42.048;24.638;2023-08-07T08:35:17;96956.56;;;28.40;42.31
10464;BME280;5279;42.048;24.638;2023-08-07T08:37:44;96942.09;;;28.39;40.73
10464;BME280;5279;42.048;24.638;2023-08-07T08:40:11;96947.28;;;28.51;40.82
10464;BME280;5279;42.048;24.638;2023-08-07T08:42:43;96932.00;;;28.70;43.26
10464;BME280;5279;42.048;24.638;2023-08-07T08:45:12;96938.03;;;28.72;40.73
10464;BME280;5279;42.048;24.638;2023-08-07T08:47:42;96933.63;;;28.76;40.24
10464;BME280;5279;42.048;24.638;2023-08-07T08:50:12;96928.16;;;28.86;41.05
10464;BME280;5279;42.048;24.638;2023-08-07T08:52:42;96926.41;;;29.15;41.68
10464;BME280;5279;42.048;24.638;2023-08-07T08:55:09;96930.56;;;28.98;39.15
10464;BME280;5279;42.048;24.638;2023-08-07T08:57:38;96930.56;;;28.98;38.86
10464;BME280;5279;42.048;24.638;2023-08-07T09:00:06;96926.41;;;29.25;38.78
10464;BME280;5279;42.048;24.638;2023-08-07T09:02:41;96924.16;;;29.38;38.56
10464;BME280;5279;42.048;24.638;2023-08-07T09:05:08;96917.63;;;29.34;37.60
10464;BME280;5279;42.048;24.638;2023-08-07T09:07:35;96911.56;;;29.47;38.16
10464;BME280;5279;42.048;24.638;2023-08-07T09:10:03;96913.03;;;29.78;36.91
10464;BME280;5279;42.048;24.638;2023-08-07T09:12:32;96906.13;;;29.91;38.86
10464;BME280;5279;42.048;24.638;2023-08-07T09:15:01;96893.56;;;29.90;36.14
10464;BME280;5279;42.048;24.638;2023-08-07T09:17:31;96910.94;;;30.04;37.68
10464;BME280;5279;42.048;24.638;2023-08-07T09:20:01;96904.56;;;30.13;36.09
10464;BME280;5279;42.048;24.638;2023-08-07T09:22:29;96898.47;;;30.26;35.84
10464;BME280;5279;42.048;24.638;2023-08-07T09:24:56;96913.13;;;30.35;35.63
10464;BME280;5279;42.048;24.638;2023-08-07T09:27:25;96899.03;;;30.52;36.26
10464;BME280;5279;42.048;24.638;2023-08-07T09:29:54;96898.19;;;30.57;33.39
10464;BME280;5279;42.048;24.638;2023-08-07T09:32:22;96886.78;;;30.73;34.14
10464;BME280;5279;42.048;24.638;2023-08-07T09:34:50;96887.25;;;30.80;33.54
10464;BME280;5279;42.048;24.638;2023-08-07T09:37:18;96892.63;;;30.91;33.86
10464;BME280;5279;42.048;24.638;2023-08-07T09:39:46;96873.44;;;30.96;34.03
10464;BME280;5279;42.048;24.638;2023-08-07T09:42:13;96883.25;;;31.20;33.13
10464;BME280;5279;42.048;24.638;2023-08-07T09:44:41;96891.41;;;31.44;33.52
10464;BME280;5279;42.048;24.638;2023-08-07T09:47:12;96873.34;;;31.67;32.85
10464;BME280;5279;42.048;24.638;2023-08-07T09:49:39;96877.16;;;31.66;32.83
10464;BME280;5279;42.048;24.638;2023-08-07T09:52:08;96884.28;;;31.67;32.55
10464;BME280;5279;42.048;24.638;2023-08-07T09:54:36;96872.28;;;31.81;32.58
10464;BME280;5279;42.048;24.638;2023-08-07T09:57:04;96872.50;;;31.66;30.96
10464;BME280;5279;42.048;24.638;2023-08-07T09:59:32;96862.56;;;31.33;32.02
10464;BME280;5279;42.048;24.638;2023-08-07T10:02:00;96869.69;;;31.53;31.49
10464;BME280;5279;42.048;24.638;2023-08-07T10:04:28;96870.34;;;31.82;31.35
10464;BME280;5279;42.048;24.638;2023-08-07T10:06:55;96871.81;;;31.93;32.42
10464;BME280;5279;42.048;24.638;2023-08-07T10:09:40;96862.16;;;32.14;31.53
10464;BME280;5279;42.048;24.638;2023-08-07T10:12:07;96868.31;;;32.25;31.64
10464;BME280;5279;42.048;24.638;2023-08-07T10:14:34;96861.56;;;32.50;31.16
10464;BME280;5279;42.048;24.638;2023-08-07T10:17:02;96849.50;;;32.78;29.61
10464;BME280;5279;42.048;24.638;2023-08-07T10:19:29;96854.06;;;32.96;28.85
10464;BME280;5279;42.048;24.638;2023-08-07T10:21:56;96836.06;;;33.04;29.42
10464;BME280;5279;42.048;24.638;2023-08-07T10:24:24;96838.22;;;33.20;29.36
10464;BME280;5279;42.048;24.638;2023-08-07T10:26:53;96838.88;;;33.39;28.61
10464;BME280;5279;42.048;24.638;2023-08-07T10:29:21;96845.00;;;33.23;28.09
10464;BME280;5279;42.048;24.638;2023-08-07T10:31:50;96839.03;;;33.07;28.43
10464;BME280;5279;42.048;24.638;2023-08-07T10:34:18;96830.22;;;33.10;28.27
10464;BME280;5279;42.048;24.638;2023-08-07T10:36:47;96833.63;;;33.29;28.63
10464;BME280;5279;42.048;24.638;2023-08-07T10:39:15;96832.41;;;33.22;27.77
10464;BME280;5279;42.048;24.638;2023-08-07T10:41:45;96820.19;;;33.28;27.71
10464;BME280;5279;42.048;24.638;2023-08-07T10:44:20;96828.28;;;33.60;27.23
10464;BME280;5279;42.048;24.638;2023-08-07T10:46:49;96828.97;;;33.88;28.24
10464;BME280;5279;42.048;24.638;2023-08-07T10:49:31;96825.97;;;34.20;28.77
10464;BME280;5279;42.048;24.638;2023-08-07T10:51:59;96819.31;;;34.43;26.02
10464;BME280;5279;42.048;24.638;2023-08-07T10:54:26;96817.69;;;34.42;25.88
10464;BME280;5279;42.048;24.638;2023-08-07T10:56:53;96823.19;;;34.42;26.04
10464;BME280;5279;42.048;24.638;2023-08-07T10:59:22;96826.56;;;34.39;25.98
10464;BME280;5279;42.048;24.638;2023-08-07T11:01:54;96827.34;;;34.31;26.80
10464;BME280;5279;42.048;24.638;2023-08-07T11:04:22;96825.63;;;34.44;26.36
10464;BME280;5279;42.048;24.638;2023-08-07T11:06:51;96820.28;;;34.47;26.32
10464;BME280;5279;42.048;24.638;2023-08-07T11:09:18;96818.06;;;34.49;27.00
10464;BME280;5279;42.048;24.638;2023-08-07T11:11:46;96817.59;;;34.56;26.44
10464;BME280;5279;42.048;24.638;2023-08-07T11:14:15;96811.97;;;34.30;26.03
10464;BME280;5279;42.048;24.638;2023-08-07T11:16:45;96795.16;;;34.32;25.84
10464;BME280;5279;42.048;24.638;2023-08-07T11:19:13;96807.38;;;34.56;26.08
10464;BME280;5279;42.048;24.638;2023-08-07T11:21:41;96789.63;;;34.63;26.29
10464;BME280;5279;42.048;24.638;2023-08-07T11:24:11;96791.94;;;34.78;26.30
10464;BME280;5279;42.048;24.638;2023-08-07T11:26:38;96790.66;;;34.84;25.43
10464;BME280;5279;42.048;24.638;2023-08-07T11:29:06;96783.38;;;34.79;25.56
10464;BME280;5279;42.048;24.638;2023-08-07T11:31:32;96793.56;;;34.79;25.84
10464;BME280;5279;42.048;24.638;2023-08-07T11:34:01;96786.75;;;34.68;25.11
10464;BME280;5279;42.048;24.638;2023-08-07T11:36:28;96790.66;;;34.84;25.15
10464;BME280;5279;42.048;24.638;2023-08-07T11:38:57;96779.16;;;34.82;25.15
10464;BME280;5279;42.048;24.638;2023-08-07T11:41:24;96786.78;;;34.85;26.00
10464;BME280;5279;42.048;24.638;2023-08-07T11:43:51;96784.97;;;35.11;25.60
10464;BME280;5279;42.048;24.638;2023-08-07T11:46:18;96776.69;;;35.11;24.68
10464;BME280;5279;42.048;24.638;2023-08-07T11:48:44;96780.06;;;35.08;25.20
10464;BME280;5279;42.048;24.638;2023-08-07T11:51:13;96773.47;;;34.70;25.81
10464;BME280;5279;42.048;24.638;2023-08-07T11:53:41;96776.13;;;34.92;25.69
10464;BME280;5279;42.048;24.638;2023-08-07T11:56:10;96785.88;;;34.98;25.16
10464;BME280;5279;42.048;24.638;2023-08-07T11:58:40;96773.03;;;34.85;24.67
10464;BME280;5279;42.048;24.638;2023-08-07T12:01:10;96760.09;;;34.46;25.38
10464;BME280;5279;42.048;24.638;2023-08-07T12:03:40;96761.19;;;34.36;25.54
10464;BME280;5279;42.048;24.638;2023-08-07T12:06:08;96760.81;;;34.29;25.70
10464;BME280;5279;42.048;24.638;2023-08-07T12:08:39;96756.97;;;34.39;26.32
10464;BME280;5279;42.048;24.638;2023-08-07T12:11:08;96750.66;;;34.38;26.65
10464;BME280;5279;42.048;24.638;2023-08-07T12:13:37;96756.00;;;34.35;26.48
10464;BME280;5279;42.048;24.638;2023-08-07T12:16:05;96751.03;;;34.54;26.88
10464;BME280;5279;42.048;24.638;2023-08-07T12:18:32;96745.66;;;34.40;25.79
10464;BME280;5279;42.048;24.638;2023-08-07T12:21:02;96742.16;;;34.57;26.08
10464;BME280;5279;42.048;24.638;2023-08-07T12:23:29;96746.63;;;34.44;27.03
10464;BME280;5279;42.048;24.638;2023-08-07T12:25:57;96735.16;;;34.42;26.68
10464;BME280;5279;42.048;24.638;2023-08-07T12:28:24;96741.91;;;34.67;27.62
10464;BME280;5279;42.048;24.638;2023-08-07T12:30:52;96743.56;;;34.94;26.44
10464;BME280;5279;42.048;24.638;2023-08-07T12:33:19;96739.81;;;34.73;26.97
10464;BME280;5279;42.048;24.638;2023-08-07T12:35:46;96738.03;;;34.77;26.54
10464;BME280;5279;42.048;24.638;2023-08-07T12:38:13;96735.59;;;34.84;26.51
10464;BME280;5279;42.048;24.638;2023-08-07T12:40:40;96735.59;;;34.84;26.73
10464;BME280;5279;42.048;24.638;2023-08-07T12:43:09;96733.72;;;34.93;27.45
10464;BME280;5279;42.048;24.638;2023-08-07T12:45:42;96738.59;;;35.13;26.36
10464;BME280;5279;42.048;24.638;2023-08-07T12:48:08;96747.03;;;35.25;26.24
10464;BME280;5279;42.048;24.638;2023-08-07T12:50:36;96741.69;;;35.29;27.01
10464;BME280;5279;42.048;24.638;2023-08-07T12:53:03;96739.09;;;35.41;26.28
10464;BME280;5279;42.048;24.638;2023-08-07T12:55:30;96744.44;;;35.54;25.69
10464;BME280;5279;42.048;24.638;2023-08-07T12:57:57;96745.09;;;35.43;26.68
10464;BME280;5279;42.048;24.638;2023-08-07T13:00:25;96740.25;;;35.14;27.34
10464;BME280;5279;42.048;24.638;2023-08-07T13:02:53;96735.38;;;35.11;26.93